Time;durP1;ratioP1;P1;durP2;ratioP2;P2;SDS_P1;SDS_P2;PMS_P1;PMS_P2;Temp;Humidity;BMP_temperature;BMP_pressure;BME280_temperature;BME280_humidity;BME280_pressure;Samples;Min_cycle;Max_cycle;Signal;HPM_P1;HPM_P2
2023/12/13 00:01:33;;;;;;;10.63;10.33;;;;;;;-141.02;100.00;39221.06;5115334;28;20193;-80
2023/12/13 00:04:00;;;;;;;8.63;8.43;;;;;;;-141.02;100.00;39242.16;5115298;28;20276;-80
2023/12/13 00:06:27;;;;;;;8.60;8.40;;;;;;;-141.02;100.00;39198.06;5115318;28;20288;-80
2023/12/13 00:08:54;;;;;;;11.10;10.80;;;;;;;-141.02;100.00;39232.59;5115169;28;20203;-78
2023/12/13 00:11:21;;;;;;;11.70;11.40;;;;;;;-141.02;100.00;39251.75;5115254;28;20232;-78
2023/12/13 00:13:48;;;;;;;9.43;9.13;;;;;;;-141.02;100.00;39228.75;5115120;28;20224;-78
2023/12/13 00:16:18;;;;;;;9.70;9.40;;;;;;;-141.02;100.00;39217.25;5114811;28;20196;-76
2023/12/13 00:18:47;;;;;;;12.63;12.23;;;;;;;-141.02;100.00;39213.41;5115101;28;20221;-78
2023/12/13 00:21:15;;;;;;;10.30;10.00;;;;;;;-141.02;100.00;39205.72;5114686;28;20189;-77
2023/12/13 00:23:42;;;;;;;10.70;10.40;;;;;;;-141.02;100.00;39184.63;5114680;28;20196;-77
2023/12/13 00:26:14;;;;;;;13.23;12.83;;;;;;;-141.02;100.00;39167.38;5114910;28;20250;-76
2023/12/13 00:28:41;;;;;;;12.07;11.67;;;;;;;-141.02;100.00;39190.38;5114550;28;20196;-77
2023/12/13 00:31:08;;;;;;;10.33;10.03;;;;;;;-141.02;100.00;39253.69;5114514;28;20660;-77
2023/12/13 00:33:37;;;;;;;11.10;10.80;;;;;;;-141.02;100.00;39211.50;5114730;28;20195;-78
2023/12/13 00:36:04;;;;;;;11.20;10.90;;;;;;;-141.02;100.00;39242.16;5114370;28;20738;-78
2023/12/13 00:38:31;;;;;;;10.40;10.10;;;;;;;-141.02;100.00;39203.81;5114282;28;20316;-71
2023/12/13 00:40:58;;;;;;;9.80;9.50;;;;;;;-141.02;100.00;39292.03;5113533;28;20193;-71
2023/12/13 00:43:25;;;;;;;9.57;9.27;;;;;;;-141.02;100.00;39316.97;5114597;28;20248;-77
2023/12/13 00:45:54;;;;;;;9.47;9.17;;;;;;;-141.02;100.00;39336.13;5114218;28;20276;-76
2023/12/13 00:48:27;;;;;;;9.40;9.10;;;;;;;-141.02;100.00;39267.09;5114477;28;20288;-78
2023/12/13 00:50:56;;;;;;;9.13;8.93;;;;;;;-141.02;100.00;39328.47;5114426;28;20196;-75
2023/12/13 00:53:24;;;;;;;9.63;9.33;;;;;;;-141.02;100.00;39355.31;5114361;27;20199;-77
2023/12/13 00:55:52;;;;;;;9.77;9.47;;;;;;;-141.02;100.00;39316.97;5113974;28;20774;-77
2023/12/13 00:58:24;;;;;;;9.97;9.67;;;;;;;-141.02;100.00;39288.19;5113919;28;20774;-77
2023/12/13 01:00:51;;;;;;;8.90;8.70;;;;;;;-141.02;100.00;39387.91;5113946;28;20201;-78
2023/12/13 01:03:18;;;;;;;8.30;8.10;;;;;;;-141.02;100.00;39432.03;5114161;28;20228;-78
2023/12/13 01:05:45;;;;;;;8.77;8.57;;;;;;;-141.02;100.00;39472.31;5113828;28;20547;-77
2023/12/13 01:08:14;;;;;;;8.47;8.27;;;;;;;-141.02;100.00;39508.75;5113742;28;20574;-75
2023/12/13 01:10:40;;;;;;;8.20;8.00;;;;;;;-141.02;100.00;39537.50;5113629;28;20284;-78
2023/12/13 01:13:08;;;;;;;8.90;8.70;;;;;;;-141.02;100.00;39501.06;5114030;28;20270;-78
2023/12/13 01:15:36;;;;;;;8.90;8.70;;;;;;;-141.02;100.00;39479.97;5113887;28;20189;-77
2023/12/13 01:18:04;;;;;;;8.90;8.70;;;;;;;-141.02;100.00;39433.94;5113821;28;20225;-78
2023/12/13 01:20:37;;;;;;;10.10;9.80;;;;;;;-141.02;100.00;39384.09;5113765;28;20289;-77
2023/12/13 01:23:04;;;;;;;10.47;10.17;;;;;;;-141.02;100.00;39347.66;5114085;28;20196;-76
2023/12/13 01:25:32;;;;;;;10.17;9.87;;;;;;;-141.02;100.00;39309.28;5113453;28;20682;-77
2023/12/13 01:27:59;;;;;;;11.17;10.87;;;;;;;-141.02;100.00;39343.81;5113430;28;20201;-76
2023/12/13 01:30:26;;;;;;;11.07;10.77;;;;;;;-141.02;100.00;39353.41;5113611;28;20281;-78
2023/12/13 01:32:54;;;;;;;11.47;11.17;;;;;;;-141.02;100.00;39359.16;5113256;28;20285;-78
2023/12/13 01:35:27;;;;;;;10.90;10.60;;;;;;;-141.02;100.00;39424.34;5113272;28;20651;-78
2023/12/13 01:37:55;;;;;;;12.57;12.17;;;;;;;-141.02;100.00;39489.56;5113052;28;20205;-78
2023/12/13 01:40:24;;;;;;;13.20;12.80;;;;;;;-141.02;100.00;39508.75;5113529;28;20194;-77
2023/12/13 01:42:58;;;;;;;13.20;12.80;;;;;;;-141.02;100.00;39535.59;5113721;28;20288;-78
2023/12/13 01:45:25;;;;;;;13.20;12.80;;;;;;;-141.02;100.00;39583.53;5113082;28;20279;-77
2023/12/13 01:47:54;;;;;;;13.47;13.07;;;;;;;-141.02;100.00;39543.25;5113364;28;20232;-77
2023/12/13 01:50:26;;;;;;;12.17;11.77;;;;;;;-141.02;100.00;39510.66;5113516;28;20197;-76
2023/12/13 01:52:55;;;;;;;10.77;10.47;;;;;;;-141.02;100.00;39600.78;5113178;28;20208;-78
2023/12/13 01:55:24;;;;;;;10.43;10.13;;;;;;;-141.02;100.00;39698.63;5112669;28;20611;-78
2023/12/13 01:57:54;;;;;;;10.13;9.83;;;;;;;-141.02;100.00;39838.63;5112907;28;20189;-76
2023/12/13 02:00:23;;;;;;;10.80;10.50;;;;;;;-141.02;100.00;39857.81;5113016;28;20307;-78
2023/12/13 02:02:57;;;;;;;11.40;11.10;;;;;;;-141.02;100.00;39911.50;5113075;28;20197;-79
2023/12/13 02:05:26;;;;;;;11.83;11.43;;;;;;;-141.02;100.00;40053.44;5112989;28;20275;-78
2023/12/13 02:07:56;;;;;;;11.57;11.23;;;;;;;-141.02;100.00;40168.53;5113067;28;20201;-76
2023/12/13 02:10:29;;;;;;;9.30;9.00;;;;;;;-141.02;100.00;40325.84;5112932;28;20227;-77
2023/12/13 02:12:56;;;;;;;9.30;9.00;;;;;;;-141.02;100.00;40552.22;5112692;28;20591;-76
2023/12/13 02:15:25;;;;;;;8.70;8.50;;;;;;;-141.02;100.00;40694.19;5112955;28;20285;-76
2023/12/13 02:17:58;;;;;;;8.10;7.90;;;;;;;-141.02;100.00;40834.22;5112578;28;20659;-76
2023/12/13 02:20:26;;;;;;;7.73;7.53;;;;;;;-141.02;100.00;40970.47;5112535;28;20721;-78
2023/12/13 02:23:00;;;;;;;7.20;7.00;;;;;;;-141.02;100.00;40958.94;5112884;28;20275;-77
2023/12/13 02:25:35;;;;;;;6.80;6.60;;;;;;;-141.02;100.00;40916.75;5112848;28;20197;-77
2023/12/13 02:28:03;;;;;;;7.30;7.10;;;;;;;-141.02;100.00;40818.88;5112870;28;20635;-79
2023/12/13 02:30:30;;;;;;;9.23;9.00;;;;;;;-141.02;100.00;40728.72;5112703;28;20594;-77
2023/12/13 02:32:58;;;;;;;10.37;10.07;;;;;;;-141.02;100.00;40586.75;5112872;28;20283;-77
2023/12/13 02:35:25;;;;;;;8.37;8.17;;;;;;;-141.02;100.00;40414.09;5112395;28;20546;-77
2023/12/13 02:37:59;;;;;;;8.30;8.10;;;;;;;-141.02;100.00;40229.94;5112338;28;20200;-78
2023/12/13 02:40:28;;;;;;;8.50;8.30;;;;;;;-141.02;100.00;39988.22;5113145;28;20228;-76
2023/12/13 02:42:55;;;;;;;8.73;8.53;;;;;;;-141.02;100.00;40116.75;5112315;28;20732;-78
2023/12/13 02:45:28;;;;;;;9.43;9.13;;;;;;;-141.02;100.00;40072.63;5112383;28;20242;-78
2023/12/13 02:47:59;;;;;;;10.40;10.10;;;;;;;-141.02;100.00;40041.94;5112280;28;20192;-78
2023/12/13 02:50:26;;;;;;;11.30;11.00;;;;;;;-141.02;100.00;39938.38;5112839;28;20292;-76
2023/12/13 02:52:53;;;;;;;12.00;11.60;;;;;;;-141.02;100.00;39936.44;5112511;28;20631;-78
2023/12/13 02:55:22;;;;;;;11.97;11.57;;;;;;;-141.02;100.00;39892.34;5112324;28;20319;-78
2023/12/13 02:57:49;;;;;;;12.00;11.60;;;;;;;-141.02;100.00;40057.28;5112548;28;20200;-78
2023/12/13 03:00:16;;;;;;;11.40;11.10;;;;;;;-141.02;100.00;40174.31;5112433;28;20283;-78
2023/12/13 03:02:42;;;;;;;11.63;11.33;;;;;;;-141.02;100.00;40262.53;5112129;28;20673;-77
2023/12/13 03:05:09;;;;;;;10.37;10.07;;;;;;;-141.02;100.00;40295.16;5115334;28;20200;-78
2023/12/13 03:07:40;;;;;;;10.87;10.57;;;;;;;-141.02;100.00;40279.81;5116079;28;20678;-78
2023/12/13 03:10:07;;;;;;;12.90;12.50;;;;;;;-141.02;100.00;40107.16;5116420;28;20212;-78
2023/12/13 03:12:36;;;;;;;13.30;12.90;;;;;;;-141.02;100.00;40082.22;5116299;28;20193;-77
2023/12/13 03:15:03;;;;;;;12.47;12.07;;;;;;;-141.02;100.00;40199.22;5116249;28;20292;-78
2023/12/13 03:17:29;;;;;;;11.90;11.50;;;;;;;-141.02;100.00;40348.88;5116219;28;20216;-78
2023/12/13 03:19:56;;;;;;;11.13;10.83;;;;;;;-141.02;100.00;40316.25;5115834;28;20227;-78
2023/12/13 03:22:30;;;;;;;11.07;10.77;;;;;;;-141.02;100.00;40341.19;5116242;28;20193;-77
2023/12/13 03:25:00;;;;;;;10.40;10.10;;;;;;;-141.02;100.00;40241.44;5116061;28;20197;-78
2023/12/13 03:27:30;;;;;;;9.90;9.60;;;;;;;-141.02;100.00;40226.09;5116053;28;20193;-77
2023/12/13 03:30:05;;;;;;;10.63;10.33;;;;;;;-141.02;100.00;40302.81;5115738;28;20193;-78
2023/12/13 03:32:32;;;;;;;10.80;10.50;;;;;;;-141.02;100.00;40137.84;5116055;28;20271;-77
2023/12/13 03:34:59;;;;;;;10.67;10.37;;;;;;;-141.02;100.00;40206.91;5115532;28;20197;-76
2023/12/13 03:37:33;;;;;;;10.70;10.40;;;;;;;-141.02;100.00;40128.25;5115622;28;20189;-78
2023/12/13 03:40:00;;;;;;;10.73;10.43;;;;;;;-141.02;100.00;40061.13;5115704;28;20225;-79
2023/12/13 03:42:27;;;;;;;10.63;10.33;;;;;;;-141.02;100.00;40078.38;5115879;28;20193;-79
2023/12/13 03:44:56;;;;;;;10.43;10.13;;;;;;;-141.02;100.00;40153.19;5115710;28;20193;-79
2023/12/13 03:47:24;;;;;;;10.30;10.00;;;;;;;-141.02;100.00;40283.63;5115381;28;20193;-79
2023/12/13 03:49:51;;;;;;;9.83;9.53;;;;;;;-141.02;100.00;40187.72;5115641;28;20200;-77
2023/12/13 03:52:18;;;;;;;9.90;9.60;;;;;;;-141.02;100.00;40087.97;5115347;28;20196;-79
2023/12/13 03:54:45;;;;;;;9.70;9.40;;;;;;;-141.02;100.00;39965.22;5115183;28;20235;-70
2023/12/13 03:57:11;;;;;;;10.67;10.37;;;;;;;-141.02;100.00;40041.94;5115122;27;20193;-77
2023/12/13 03:59:38;;;;;;;10.07;9.77;;;;;;;-141.02;100.00;39972.88;5115411;28;20316;-79
2023/12/13 04:02:05;;;;;;;8.83;8.63;;;;;;;-141.02;100.00;40191.56;5115447;28;20189;-76
2023/12/13 04:04:40;;;;;;;8.80;8.60;;;;;;;-141.02;100.00;40281.72;5115115;28;20751;-77
2023/12/13 04:07:08;;;;;;;8.50;8.30;;;;;;;-141.02;100.00;40504.25;5115304;28;20193;-78
2023/12/13 04:09:35;;;;;;;8.40;8.20;;;;;;;-141.02;100.00;40744.06;5115159;28;20201;-78
2023/12/13 04:12:03;;;;;;;8.20;8.00;;;;;;;-141.02;100.00;41005.00;5115309;28;20189;-77
2023/12/13 04:14:30;;;;;;;7.60;7.40;;;;;;;-141.02;100.00;41143.16;5115060;28;20193;-78
2023/12/13 04:16:57;;;;;;;7.40;7.20;;;;;;;-141.02;100.00;41344.63;5114844;28;20735;-77
2023/12/13 04:19:24;;;;;;;7.50;7.30;;;;;;;-141.02;100.00;41081.75;5115746;27;20235;-79
2023/12/13 04:21:52;;;;;;;7.70;7.50;;;;;;;-141.02;100.00;41089.41;5114707;28;20287;-77
2023/12/13 04:24:19;;;;;;;8.40;8.20;;;;;;;-141.02;100.00;40937.84;5115302;28;20200;-78
2023/12/13 04:26:46;;;;;;;8.23;8.03;;;;;;;-141.02;100.00;41031.84;5114581;28;20193;-76
2023/12/13 04:29:13;;;;;;;8.20;8.00;;;;;;;-141.02;100.00;41127.78;5114568;28;20198;-79
2023/12/13 04:31:40;;;;;;;8.20;8.00;;;;;;;-141.02;100.00;41012.66;5114810;28;20272;-77
2023/12/13 04:34:07;;;;;;;8.60;8.40;;;;;;;-141.02;100.00;41001.16;5114785;28;20272;-78
2023/12/13 04:36:46;;;;;;;8.50;8.30;;;;;;;-141.02;100.00;40985.81;5114783;28;20196;-78
2023/12/13 04:39:15;;;;;;;8.70;8.50;;;;;;;-141.02;100.00;40609.75;5114366;28;20690;-77
2023/12/13 04:41:42;;;;;;;8.93;8.73;;;;;;;-141.02;100.00;40552.22;5114596;28;20193;-78
2023/12/13 04:44:11;;;;;;;8.67;8.47;;;;;;;-141.02;100.00;40628.94;5114605;28;20284;-76
2023/12/13 04:46:38;;;;;;;9.10;8.90;;;;;;;-141.02;100.00;40607.84;5114295;28;20226;-77
2023/12/13 04:49:06;;;;;;;7.87;7.67;;;;;;;-141.02;100.00;40811.22;5114365;28;20657;-78
2023/12/13 04:51:33;;;;;;;7.70;7.50;;;;;;;-141.02;100.00;41031.84;5114169;28;20736;-78
2023/12/13 04:54:00;;;;;;;7.60;7.40;;;;;;;-141.02;100.00;41008.84;5114447;28;20315;-79
2023/12/13 04:56:28;;;;;;;7.60;7.40;;;;;;;-141.02;100.00;41116.28;5114392;28;20186;-79
2023/12/13 04:58:55;;;;;;;8.77;8.57;;;;;;;-141.02;100.00;41269.78;5114069;28;20196;-79
2023/12/13 05:01:22;;;;;;;8.30;8.10;;;;;;;-141.02;100.00;41273.63;5113820;28;20610;-78
2023/12/13 05:03:49;;;;;;;8.33;8.13;;;;;;;-141.02;100.00;41241.00;5114231;28;20193;-78
2023/12/13 05:06:16;;;;;;;9.00;8.80;;;;;;;-141.02;100.00;41123.97;5114134;28;20193;-78
2023/12/13 05:08:43;;;;;;;9.43;9.13;;;;;;;-141.02;100.00;41047.22;5114035;28;20195;-78
2023/12/13 05:11:10;;;;;;;9.03;8.83;;;;;;;-141.02;100.00;41283.22;5113750;28;20201;-79
2023/12/13 05:13:38;;;;;;;8.63;8.43;;;;;;;-141.02;100.00;41553.78;5113671;28;20575;-79
2023/12/13 05:16:06;;;;;;;10.00;9.70;;;;;;;-141.02;100.00;41718.81;5114003;28;20205;-80
2023/12/13 05:18:33;;;;;;;9.07;8.87;;;;;;;-141.02;100.00;41918.41;5113772;28;20197;-79
2023/12/13 05:21:01;;;;;;;8.10;7.90;;;;;;;-141.02;100.00;42189.03;5113849;28;20311;-78
2023/12/13 05:23:28;;;;;;;7.20;7.00;;;;;;;-141.02;100.00;42732.28;5113853;28;20197;-79
2023/12/13 05:25:55;;;;;;;7.70;7.50;;;;;;;-141.02;100.00;42478.88;5113507;28;20284;-79
2023/12/13 05:28:22;;;;;;;8.40;8.20;;;;;;;-141.02;100.00;42580.63;5113272;28;20197;-79
2023/12/13 05:30:50;;;;;;;8.27;8.07;;;;;;;-141.02;100.00;42906.97;5113323;28;20284;-78
2023/12/13 05:33:17;;;;;;;8.40;8.20;;;;;;;-141.02;100.00;43292.88;5113397;28;20189;-79
2023/12/13 05:35:44;;;;;;;8.23;8.03;;;;;;;-141.02;100.00;44429.72;5113528;28;20203;-78
2023/12/13 05:38:11;;;;;;;8.60;8.40;;;;;;;-141.02;100.00;46135.69;5113883;28;20266;-78
2023/12/13 05:40:38;;;;;;;7.83;7.63;;;;;;;-141.02;100.00;46412.41;5113707;28;20260;-80
2023/12/13 05:43:05;;;;;;;8.30;8.10;;;;;;;-141.02;100.00;45782.13;5113400;28;20193;-79
2023/12/13 05:45:32;;;;;;;8.00;7.80;;;;;;;-141.02;100.00;44898.38;5113107;28;20197;-79
2023/12/13 05:48:01;;;;;;;7.50;7.30;;;;;;;-141.02;100.00;44800.41;5113029;28;20228;-79
2023/12/13 05:50:27;;;;;;;7.50;7.30;;;;;;;-141.02;100.00;45315.25;5113031;28;20663;-78
2023/12/13 05:52:54;;;;;;;7.60;7.40;;;;;;;-141.02;100.00;45334.47;5113272;28;20203;-79
2023/12/13 05:55:21;;;;;;;7.50;7.30;;;;;;;-141.02;100.00;45785.97;5112786;28;20303;-80
2023/12/13 05:57:48;;;;;;;7.97;7.77;;;;;;;-141.02;100.00;46506.56;5113247;28;20201;-78
2023/12/13 06:00:16;;;;;;;7.53;7.33;;;;;;;-141.02;100.00;48307.81;5113056;28;20224;-78
2023/12/13 06:02:43;;;;;;;6.80;6.60;;;;;;;-141.02;100.00;48515.50;5113229;28;20189;-79
2023/12/13 06:05:11;;;;;;;6.67;6.47;;;;;;;-141.02;100.00;48007.88;5113150;28;20250;-80
2023/12/13 06:07:38;;;;;;;6.20;6.10;;;;;;;-141.02;100.00;48688.56;5113063;28;20231;-79
2023/12/13 06:10:07;;;;;;;6.60;6.40;;;;;;;-141.02;100.00;48204.00;5112686;28;20574;-78
2023/12/13 06:12:34;;;;;;;9.23;8.93;;;;;;;-141.02;100.00;47646.41;5112636;28;20270;-76
2023/12/13 06:15:02;;;;;;;7.33;7.13;;;;;;;-141.02;100.00;48703.97;5112696;28;20227;-79
2023/12/13 06:17:29;;;;;;;5.40;5.30;;;;;;;-141.02;100.00;48873.19;5112929;28;20292;-77
2023/12/13 06:19:56;;;;;;;6.20;6.10;;;;;;;-141.02;100.00;47944.41;5112859;28;20667;-78
2023/12/13 06:22:24;;;;;;;7.60;7.40;;;;;;;-141.02;100.00;47254.25;5112606;28;20239;-78
2023/12/13 06:24:51;;;;;;;8.10;7.90;;;;;;;-141.02;100.00;45764.81;5112739;28;20197;-80
2023/12/13 06:27:18;;;;;;;9.90;9.60;;;;;;;-141.02;100.00;44852.28;5112840;28;20283;-81
2023/12/13 06:29:45;;;;;;;10.90;10.60;;;;;;;-141.02;100.00;43968.78;5112464;28;20292;-79
2023/12/13 06:32:12;;;;;;;11.20;10.90;;;;;;;-141.02;100.00;43930.38;5112793;28;20192;-78
2023/12/13 06:34:39;;;;;;;12.43;12.03;;;;;;;-141.02;100.00;43580.88;5112673;28;20288;-79
2023/12/13 06:37:06;;;;;;;13.03;12.63;;;;;;;-141.02;100.00;42801.38;5112348;28;20679;-79
2023/12/13 06:39:34;;;;;;;13.50;13.10;;;;;;;-141.02;100.00;42613.25;5114379;28;20201;-78
2023/12/13 06:42:01;;;;;;;14.20;13.70;;;;;;;-141.02;100.00;42544.16;5116676;28;20204;-80
2023/12/13 06:44:28;;;;;;;13.43;13.00;;;;;;;-141.02;100.00;42736.13;5116621;28;20284;-79
2023/12/13 06:46:55;;;;;;;14.60;14.10;;;;;;;-141.02;100.00;42582.53;5116544;28;20733;-77
2023/12/13 06:49:23;;;;;;;14.70;14.20;;;;;;;-141.02;100.00;42377.16;5116531;28;20199;-79
2023/12/13 06:51:50;;;;;;;15.70;15.10;;;;;;;-141.02;100.00;42252.38;5116757;28;20642;-79
2023/12/13 06:54:18;;;;;;;15.70;15.10;;;;;;;-141.02;100.00;42027.81;5116087;28;20239;-77
2023/12/13 06:56:46;;;;;;;17.50;16.80;;;;;;;-141.02;100.00;41887.72;5116401;28;20728;-77
2023/12/13 06:59:13;;;;;;;16.23;15.63;;;;;;;-141.02;100.00;41835.91;5116587;28;20698;-79
2023/12/13 07:01:40;;;;;;;16.37;15.67;;;;;;;-141.02;100.00;41772.56;5116206;28;20315;-79
2023/12/13 07:04:07;;;;;;;17.00;16.30;;;;;;;-141.02;100.00;41699.63;5116491;28;20679;-77
2023/12/13 07:06:34;;;;;;;17.40;16.70;;;;;;;-141.02;100.00;41680.44;5116484;28;20189;-79
2023/12/13 07:09:02;;;;;;;16.90;16.20;;;;;;;-141.02;100.00;41684.28;5116573;27;20286;-78
2023/12/13 07:11:29;;;;;;;17.03;16.23;;;;;;;-141.02;100.00;41695.81;5116393;28;20199;-74
2023/12/13 07:13:57;;;;;;;19.90;19.00;;;;;;;-141.02;100.00;41699.63;5116258;28;20289;-78
2023/12/13 07:16:24;;;;;;;18.77;17.97;;;;;;;-141.02;100.00;41571.06;5116024;28;20670;-78
2023/12/13 07:18:51;;;;;;;15.60;14.90;;;;;;;-141.02;100.00;41578.75;5116349;28;20275;-78
2023/12/13 07:21:18;;;;;;;15.73;15.13;;;;;;;-141.02;100.00;41565.31;5115882;28;20228;-77
2023/12/13 07:23:45;;;;;;;16.20;15.60;;;;;;;-141.02;100.00;41734.19;5116355;28;20189;-77
2023/12/13 07:26:12;;;;;;;16.53;15.93;;;;;;;-141.02;100.00;41807.09;5116182;28;20249;-79
2023/12/13 07:28:39;;;;;;;14.37;13.87;;;;;;;-141.02;100.00;41843.56;5115757;28;20655;-78
2023/12/13 07:31:08;;;;;;;14.03;13.53;;;;;;;-141.02;100.00;41730.34;5115705;28;20283;-77
2023/12/13 07:33:36;;;;;;;16.13;15.53;;;;;;;-141.02;100.00;41772.56;5115662;28;20193;-78
2023/12/13 07:36:04;;;;;;;17.57;16.87;;;;;;;-141.02;100.00;41826.31;5115661;28;20201;-78
2023/12/13 07:38:31;;;;;;;14.70;14.20;;;;;;;-141.02;100.00;42022.06;5115926;28;20272;-78
2023/12/13 07:40:58;;;;;;;15.40;14.80;;;;;;;-141.02;100.00;42169.84;5115896;28;20225;-79
2023/12/13 07:43:26;;;;;;;16.73;16.03;;;;;;;-141.02;100.00;42214.00;5115746;28;20224;-78
2023/12/13 07:45:54;;;;;;;18.43;17.63;;;;;;;-141.02;100.00;42215.91;5115696;28;20256;-77
2023/12/13 07:48:23;;;;;;;16.50;15.80;;;;;;;-141.02;100.00;42164.09;5115719;28;20197;-78
2023/12/13 07:50:50;;;;;;;16.40;15.70;;;;;;;-141.02;100.00;42129.53;5115209;28;20197;-77
2023/12/13 07:53:17;;;;;;;20.90;19.90;;;;;;;-141.02;100.00;42000.94;5115554;28;20197;-78
2023/12/13 07:55:44;;;;;;;20.40;19.50;;;;;;;-141.02;100.00;41987.50;5115137;28;20256;-78
2023/12/13 07:58:11;;;;;;;19.57;18.63;;;;;;;-141.02;100.00;41901.16;5115273;28;20196;-78
2023/12/13 08:00:38;;;;;;;16.77;15.97;;;;;;;-141.02;100.00;41926.09;5115677;28;20315;-78
2023/12/13 08:03:05;;;;;;;21.80;20.67;;;;;;;-141.02;100.00;41845.50;5115437;28;20224;-79
2023/12/13 08:05:33;;;;;;;22.30;21.20;;;;;;;-141.02;100.00;41695.81;5115444;28;20203;-77
2023/12/13 08:08:00;;;;;;;19.13;18.13;;;;;;;-141.02;100.00;41599.84;5115387;28;20231;-77
2023/12/13 08:10:27;;;;;;;18.37;17.37;;;;;;;-141.02;100.00;41430.97;5115222;28;20292;-77
2023/12/13 08:12:54;;;;;;;23.97;22.67;;;;;;;-141.02;100.00;41446.31;5114939;28;20292;-77
2023/12/13 08:15:21;;;;;;;24.33;22.93;;;;;;;-141.02;100.00;41292.81;5114906;28;20281;-76
2023/12/13 08:17:48;;;;;;;24.30;22.90;;;;;;;-141.02;100.00;41288.97;5114916;28;20284;-77
2023/12/13 08:20:15;;;;;;;18.40;17.30;;;;;;;-141.02;100.00;41256.34;5114658;28;20228;-77
2023/12/13 08:22:43;;;;;;;18.87;17.67;;;;;;;-141.02;100.00;41237.16;5114659;28;20204;-78
2023/12/13 08:25:10;;;;;;;24.77;23.27;;;;;;;-141.02;100.00;41254.44;5115024;28;20203;-79
2023/12/13 08:27:37;;;;;;;23.60;22.10;;;;;;;-141.02;100.00;41219.91;5114565;28;20229;-78
2023/12/13 08:30:05;;;;;;;18.60;17.40;;;;;;;-141.02;100.00;41254.44;5114630;28;20207;-78
2023/12/13 08:32:32;;;;;;;20.03;18.73;;;;;;;-141.02;100.00;41292.81;5114582;28;20242;-77
2023/12/13 08:34:59;;;;;;;22.87;21.47;;;;;;;-141.02;100.00;41212.22;5114764;28;20220;-77
2023/12/13 08:37:26;;;;;;;21.87;20.57;;;;;;;-141.02;100.00;41225.66;5114796;28;20272;-74
2023/12/13 08:39:54;;;;;;;18.50;17.30;;;;;;;-141.02;100.00;41200.72;5114337;28;20228;-76
2023/12/13 08:42:21;;;;;;;21.30;19.90;;;;;;;-141.02;100.00;41162.34;5114061;28;20789;-75
2023/12/13 08:44:48;;;;;;;23.07;21.57;;;;;;;-141.02;100.00;41235.25;5114587;28;20190;-75
2023/12/13 08:47:15;;;;;;;24.60;23.00;;;;;;;-141.02;100.00;41273.63;5114559;28;20620;-75
2023/12/13 08:49:44;;;;;;;24.20;22.70;;;;;;;-141.02;100.00;41250.59;5114248;28;20651;-75
2023/12/13 08:52:11;;;;;;;25.13;23.43;;;;;;;-141.02;100.00;41350.38;5114113;28;20212;-75
2023/12/13 08:54:38;;;;;;;24.23;22.63;;;;;;;-141.02;100.00;41381.09;5114092;28;20243;-75
2023/12/13 08:57:06;;;;;;;25.50;23.80;;;;;;;-141.02;100.00;41269.78;5114270;28;20216;-75
2023/12/13 08:59:33;;;;;;;25.90;24.20;;;;;;;-141.02;100.00;41223.72;5114305;28;20204;-75
2023/12/13 09:02:00;;;;;;;26.40;24.60;;;;;;;-141.02;100.00;41275.53;5113257;28;20282;-75
2023/12/13 09:04:27;;;;;;;27.07;25.17;;;;;;;-141.02;100.00;41285.13;5113890;28;20193;-75
2023/12/13 09:06:54;;;;;;;26.47;24.67;;;;;;;-141.02;100.00;41123.97;5114178;28;20276;-75
2023/12/13 09:09:21;;;;;;;25.93;24.13;;;;;;;-141.02;100.00;41384.91;5114087;28;20224;-76
2023/12/13 09:11:48;;;;;;;27.37;25.47;;;;;;;-141.02;100.00;41400.28;5114085;28;20228;-75
2023/12/13 09:14:16;;;;;;;26.03;24.23;;;;;;;-141.02;100.00;41411.78;5113749;28;20294;-76
2023/12/13 09:16:43;;;;;;;25.20;23.50;;;;;;;-141.02;100.00;41170.00;5113903;28;20754;-75
2023/12/13 09:19:10;;;;;;;25.70;24.00;;;;;;;-141.02;100.00;41085.59;5114161;28;20262;-75
2023/12/13 09:21:37;;;;;;;25.80;24.10;;;;;;;-141.02;100.00;41016.50;5113733;28;20648;-74
2023/12/13 09:24:04;;;;;;;25.20;23.50;;;;;;;-141.02;100.00;41139.31;5113724;28;20284;-76
2023/12/13 09:26:31;;;;;;;25.37;23.67;;;;;;;-141.02;100.00;41133.56;5113557;28;20681;-74
2023/12/13 09:28:58;;;;;;;19.47;18.17;;;;;;;-141.02;100.00;41256.34;5113357;28;20193;-74
2023/12/13 09:31:27;;;;;;;19.43;18.13;;;;;;;-141.02;100.00;41242.91;5113778;28;20190;-75
2023/12/13 09:33:54;;;;;;;19.43;18.13;;;;;;;-141.02;100.00;41219.91;5113496;28;20197;-74
2023/12/13 09:36:21;;;;;;;19.57;18.27;;;;;;;-141.02;100.00;41204.53;5113333;28;20284;-75
2023/12/13 09:38:48;;;;;;;19.17;17.87;;;;;;;-141.02;100.00;41104.78;5113946;28;20235;-75
2023/12/13 09:41:21;;;;;;;19.50;18.20;;;;;;;-141.02;100.00;41150.81;5112986;28;20315;-75
2023/12/13 09:43:50;;;;;;;19.40;18.10;;;;;;;-141.02;100.00;41194.94;5113381;28;20220;-74
2023/12/13 09:46:19;;;;;;;23.10;21.60;;;;;;;-141.02;100.00;41204.53;5113600;28;20197;-74
2023/12/13 09:48:47;;;;;;;23.97;22.47;;;;;;;-141.02;100.00;41288.97;5113341;28;20276;-75
2023/12/13 09:51:16;;;;;;;18.57;17.37;;;;;;;-141.02;100.00;41358.06;5113111;28;20283;-76
2023/12/13 09:53:45;;;;;;;19.03;17.73;;;;;;;-141.02;100.00;41319.69;5113019;28;20228;-74
2023/12/13 09:56:12;;;;;;;23.90;22.40;;;;;;;-141.02;100.00;41281.31;5113182;28;20191;-75
2023/12/13 09:58:40;;;;;;;23.77;22.27;;;;;;;-141.02;100.00;41241.00;5113201;28;20189;-75
2023/12/13 10:01:12;;;;;;;22.10;20.70;;;;;;;-141.02;100.00;41304.31;5112578;28;20315;-75
2023/12/13 10:03:41;;;;;;;23.70;22.20;;;;;;;-141.02;100.00;41273.63;5112788;28;20719;-76
2023/12/13 10:06:10;;;;;;;24.50;23.10;;;;;;;-141.02;100.00;41271.72;5112913;28;20219;-74
2023/12/13 10:08:37;;;;;;;19.50;18.30;;;;;;;-141.02;100.00;41300.50;5112690;28;20189;-75
2023/12/13 10:11:05;;;;;;;17.93;16.83;;;;;;;-141.02;100.00;41158.50;5112935;28;20193;-75
2023/12/13 10:13:34;;;;;;;21.57;20.27;;;;;;;-141.02;100.00;41047.22;5112530;28;20189;-76
2023/12/13 10:16:09;;;;;;;19.67;18.37;;;;;;;-141.02;100.00;41054.88;5112655;28;20258;-76
2023/12/13 10:18:36;;;;;;;17.77;16.57;;;;;;;-141.02;100.00;41070.22;5112372;28;20195;-75
2023/12/13 10:21:04;;;;;;;22.70;21.30;;;;;;;-141.02;100.00;41047.22;5112574;28;20687;-75
2023/12/13 10:23:35;;;;;;;23.80;22.20;;;;;;;-141.02;100.00;41008.84;5112604;28;20202;-74
2023/12/13 10:26:02;;;;;;;18.43;17.17;;;;;;;-141.02;100.00;41039.53;5112528;28;20187;-75
2023/12/13 10:28:29;;;;;;;17.80;16.60;;;;;;;-141.02;100.00;41104.78;5112755;28;20189;-75
2023/12/13 10:30:57;;;;;;;18.43;17.20;;;;;;;-141.02;100.00;41131.63;5113158;28;20276;-73
2023/12/13 10:33:24;;;;;;;23.13;21.63;;;;;;;-141.02;100.00;41106.69;5112375;28;20284;-75
2023/12/13 10:35:53;;;;;;;24.10;22.50;;;;;;;-141.02;100.00;41087.50;5112277;28;20285;-75
2023/12/13 10:38:23;;;;;;;18.40;17.10;;;;;;;-141.02;100.00;41112.44;5112271;28;20193;-74
2023/12/13 10:40:51;;;;;;;18.40;17.10;;;;;;;-141.02;100.00;41158.50;5112324;28;20197;-74
2023/12/13 10:43:20;;;;;;;18.70;17.30;;;;;;;-141.02;100.00;41158.50;5112538;28;20197;-74
2023/12/13 10:45:54;;;;;;;19.07;17.67;;;;;;;-141.02;100.00;41104.78;5112204;28;20627;-74
2023/12/13 10:48:24;;;;;;;19.40;17.90;;;;;;;-141.02;100.00;41074.06;5112850;28;20185;-75
2023/12/13 10:50:52;;;;;;;19.17;17.67;;;;;;;-141.02;100.00;41039.53;5112230;28;20609;-74
2023/12/13 10:53:20;;;;;;;19.40;17.90;;;;;;;-141.02;100.00;40932.09;5112159;28;20621;-74
2023/12/13 10:55:48;;;;;;;19.47;17.97;;;;;;;-141.02;100.00;40909.06;5112057;28;20316;-74
2023/12/13 10:58:17;;;;;;;19.90;18.30;;;;;;;-141.02;100.00;40874.53;5112453;28;20280;-75
2023/12/13 11:00:44;;;;;;;23.50;21.50;;;;;;;-141.02;100.00;40937.84;5112135;28;20196;-74
2023/12/13 11:03:17;;;;;;;19.20;17.60;;;;;;;-141.02;100.00;41012.66;5111927;28;20231;-75